Time;durP1;ratioP1;P1;durP2;ratioP2;P2;SDS_P1;SDS_P2;PMS_P1;PMS_P2;Temp;Humidity;BMP_temperature;BMP_pressure;BME280_temperature;BME280_humidity;BME280_pressure;Samples;Min_cycle;Max_cycle;Signal;HPM_P1;HPM_P2
2021/01/25 00:01:42;;;;;;;22.70;16.13;;;;;;;6.45;62.85;102395.38;4884046;29;20044;-90
2021/01/25 00:04:09;;;;;;;29.55;16.70;;;;;;;6.40;63.09;102398.66;4865381;29;20132;-90
2021/01/25 00:06:36;;;;;;;20.35;15.45;;;;;;;6.06;63.02;102327.53;4865918;29;20029;-92
2021/01/25 00:09:03;;;;;;;27.10;16.75;;;;;;;6.42;63.49;102390.25;4867035;29;20047;-90
2021/01/25 00:11:30;;;;;;;26.42;17.83;;;;;;;6.51;63.20;102383.63;4871209;29;20127;-91
2021/01/25 00:13:57;;;;;;;21.58;15.52;;;;;;;6.47;63.09;102386.94;4886318;29;20022;-89
2021/01/25 00:16:24;;;;;;;28.17;19.23;;;;;;;6.34;62.97;102354.50;4894867;29;20056;-89
2021/01/25 00:18:51;;;;;;;26.98;19.67;;;;;;;6.55;63.01;102384.97;4888163;29;20037;-91
2021/01/25 00:21:18;;;;;;;34.92;24.55;;;;;;;5.82;63.29;102299.97;4882775;29;20032;-92
2021/01/25 00:23:48;;;;;;;36.38;21.52;;;;;;;6.39;63.78;102380.44;4865217;29;20052;-92
2021/01/25 00:26:14;;;;;;;35.60;22.88;;;;;;;6.16;64.31;102397.78;4865866;29;20029;-93
2021/01/25 00:28:41;;;;;;;33.65;23.88;;;;;;;6.18;63.69;102377.47;4868420;29;20491;-91
2021/01/25 00:31:08;;;;;;;30.38;21.63;;;;;;;6.41;63.40;102408.63;4885503;29;20093;-93
2021/01/25 00:33:36;;;;;;;25.45;19.27;;;;;;;6.12;64.07;102373.56;4892495;29;20045;-93
2021/01/25 00:36:03;;;;;;;32.72;23.52;;;;;;;5.91;63.87;102349.41;4873896;29;20140;-92
2021/01/25 00:38:30;;;;;;;31.42;19.63;;;;;;;5.68;63.08;102295.22;4880958;29;20041;-86
2021/01/25 00:40:57;;;;;;;26.40;18.27;;;;;;;5.50;62.98;102238.66;4890794;29;20455;-89
2021/01/25 00:43:23;;;;;;;29.13;18.00;;;;;;;6.48;63.22;102416.16;4885659;29;20025;-88
2021/01/25 00:45:50;;;;;;;22.55;15.32;;;;;;;6.70;62.77;102420.84;4886277;29;20064;-88
2021/01/25 00:48:17;;;;;;;20.70;14.32;;;;;;;6.12;61.51;102302.91;4888000;29;20469;-86
2021/01/25 00:50:44;;;;;;;22.80;17.05;;;;;;;6.34;61.38;102336.13;4882689;29;20112;-88
2021/01/25 00:53:11;;;;;;;21.15;14.02;;;;;;;6.35;61.86;102329.56;4874849;29;20024;-88
2021/01/25 00:55:38;;;;;;;29.00;15.93;;;;;;;7.05;61.35;102416.75;4865540;29;20036;-88
2021/01/25 00:58:04;;;;;;;25.13;15.25;;;;;;;6.49;61.43;102314.19;4866122;29;20471;-88
2021/01/25 01:00:31;;;;;;;25.60;16.52;;;;;;;6.00;61.91;102249.34;4879757;29;20089;-89
2021/01/25 01:02:58;;;;;;;20.52;13.82;;;;;;;7.07;61.18;102414.69;4883541;29;20508;-89
2021/01/25 01:05:25;;;;;;;24.63;14.27;;;;;;;6.83;61.34;102339.50;4868704;29;20157;-88
2021/01/25 01:07:51;;;;;;;16.65;13.27;;;;;;;6.67;60.83;102286.31;4876796;29;20033;-88
2021/01/25 01:10:18;;;;;;;22.13;15.65;;;;;;;6.81;60.79;102303.06;4852375;29;20044;-88
2021/01/25 01:12:45;;;;;;;24.70;15.35;;;;;;;6.65;60.48;102291.16;4864435;29;20025;-89
2021/01/25 01:15:14;;;;;;;22.73;13.57;;;;;;;7.36;60.20;102397.38;4896030;29;20048;-88
2021/01/25 01:17:41;;;;;;;18.67;12.93;;;;;;;7.40;60.16;102370.28;4889451;29;20035;-87
2021/01/25 01:20:10;;;;;;;21.85;14.27;;;;;;;7.59;59.33;102373.53;4898278;29;20044;-87
2021/01/25 01:22:37;;;;;;;20.65;12.90;;;;;;;7.66;58.93;102408.41;4880220;29;20025;-88
2021/01/25 01:25:08;;;;;;;18.75;12.32;;;;;;;7.79;59.24;102405.00;4886834;29;20387;-87
2021/01/25 01:27:36;;;;;;;23.88;13.38;;;;;;;7.47;59.12;102371.25;4899857;29;20025;-88
2021/01/25 01:30:07;;;;;;;20.13;14.48;;;;;;;7.01;59.99;102322.66;4880592;29;20119;-88
2021/01/25 01:32:34;;;;;;;15.63;12.30;;;;;;;7.52;59.26;102414.78;4880382;29;20029;-87
2021/01/25 01:35:01;;;;;;;21.80;15.10;;;;;;;7.75;59.15;102403.69;4875191;29;20021;-89
2021/01/25 01:37:28;;;;;;;18.73;13.52;;;;;;;7.49;58.22;102336.06;4893025;29;20053;-87
2021/01/25 01:39:55;;;;;;;17.70;11.60;;;;;;;6.91;58.04;102223.81;4863891;29;20029;-85
2021/01/25 01:42:21;;;;;;;18.65;11.88;;;;;;;7.84;57.39;102345.66;4879967;29;20124;-87
2021/01/25 01:44:48;;;;;;;20.10;13.45;;;;;;;7.24;57.45;102217.03;4864095;29;20513;-88
2021/01/25 01:47:21;;;;;;;19.63;11.52;;;;;;;7.46;56.67;102214.34;4866240;29;20037;-87
2021/01/25 01:49:51;;;;;;;19.58;12.23;;;;;;;7.72;56.44;102268.09;4890623;29;20037;-89
2021/01/25 01:52:17;;;;;;;;;;;;;;;8.53;56.40;102384.91;4864816;29;20029;-87
2021/01/25 01:54:45;;;;;;;18.60;11.38;;;;;;;8.41;56.47;102399.19;4867226;29;19916;-87
2021/01/25 01:57:12;;;;;;;16.00;11.10;;;;;;;8.03;56.44;102303.66;4881635;29;20070;-88
2021/01/25 01:59:39;;;;;;;17.55;11.55;;;;;;;8.68;56.03;102396.72;4866141;29;20122;-89
2021/01/25 02:02:06;;;;;;;19.92;12.82;;;;;;;8.44;55.41;102340.81;4879787;29;20065;-88
2021/01/25 02:04:35;;;;;;;17.77;13.52;;;;;;;8.83;55.38;102374.59;4864493;29;20101;-87
2021/01/25 02:07:06;;;;;;;17.73;12.55;;;;;;;8.76;55.02;102377.28;4877138;29;20025;-88
2021/01/25 02:09:38;;;;;;;16.17;10.95;;;;;;;8.61;54.53;102327.66;4880249;29;20036;-88
2021/01/25 02:12:07;;;;;;;19.70;12.32;;;;;;;8.90;54.81;102369.97;4880159;29;20032;-89
2021/01/25 02:14:35;;;;;;;22.95;13.50;;;;;;;8.30;53.96;102199.09;4873110;29;20028;-87
2021/01/25 02:17:03;;;;;;;18.55;12.68;;;;;;;9.06;53.58;102293.38;4888809;29;20033;-87
2021/01/25 02:20:07;;;;;;;18.95;12.55;;;;;;;9.10;53.81;102357.38;4879162;29;20025;-87
2021/01/25 02:22:37;;;;;;;16.77;11.48;;;;;;;9.14;53.99;102351.25;4885827;29;20131;-87
2021/01/25 02:25:18;;;;;;;16.48;11.77;;;;;;;9.10;54.40;102347.16;4880511;29;20029;-88
2021/01/25 02:27:44;;;;;;;;;;;;;;;9.34;53.54;102345.03;4863699;29;20428;-89
2021/01/25 02:30:13;;;;;;;17.80;12.93;;;;;;;9.40;53.60;102359.94;4883754;29;20365;-88
2021/01/25 02:32:41;;;;;;;19.02;11.77;;;;;;;8.16;53.63;102154.00;4887425;29;20049;-88
2021/01/25 02:35:16;;;;;;;16.70;12.00;;;;;;;9.18;52.90;102264.13;4863378;29;20031;-88
2021/01/25 02:37:46;;;;;;;16.38;10.98;;;;;;;9.60;52.84;102324.09;4863363;29;20526;-86
2021/01/25 02:40:15;;;;;;;16.27;11.75;;;;;;;9.51;53.05;102333.63;4869470;29;20037;-85
2021/01/25 02:42:44;;;;;;;16.27;10.73;;;;;;;9.28;53.20;102301.59;4885579;29;20036;-87
2021/01/25 02:45:12;;;;;;;17.38;11.32;;;;;;;8.32;53.19;102113.38;4901961;29;20025;-86
2021/01/25 02:47:39;;;;;;;15.50;11.70;;;;;;;9.59;52.48;102305.81;4887323;29;20036;-87
2021/01/25 02:50:07;;;;;;;20.35;12.98;;;;;;;9.04;52.55;102218.16;4865339;29;20073;-87
2021/01/25 02:52:34;;;;;;;19.38;11.73;;;;;;;9.22;54.00;102216.75;4865421;29;20084;-87
2021/01/25 02:55:01;;;;;;;20.88;12.60;;;;;;;9.74;51.86;102260.56;4882229;29;20025;-88
2021/01/25 02:57:30;;;;;;;17.05;12.70;;;;;;;9.78;52.09;102306.09;4878451;29;20029;-87
2021/01/25 02:59:57;;;;;;;20.50;12.15;;;;;;;9.03;51.97;102192.41;4875808;29;20195;-88
2021/01/25 03:02:24;;;;;;;18.42;12.82;;;;;;;8.63;52.77;102125.91;4880043;29;20025;-87
2021/01/25 03:04:52;;;;;;;17.58;12.57;;;;;;;9.61;52.86;102276.03;4889867;29;20032;-86
2021/01/25 03:07:19;;;;;;;21.50;13.60;;;;;;;9.02;52.18;102140.97;4870729;29;20044;-86
2021/01/25 03:09:48;;;;;;;19.08;10.07;;;;;;;9.80;52.33;102284.63;4877638;29;20061;-88
2021/01/25 03:12:16;;;;;;;23.27;13.40;;;;;;;9.47;52.09;102185.78;4854146;29;20025;-88
2021/01/25 03:14:46;;;;;;;21.00;12.98;;;;;;;9.95;51.43;102267.84;4863472;29;20033;-87
2021/01/25 03:17:13;;;;;;;22.17;14.00;;;;;;;9.80;51.39;102221.84;4899997;29;20044;-87
2021/01/25 03:19:40;;;;;;;22.15;14.02;;;;;;;10.30;51.31;102276.03;4888593;29;20033;-88
2021/01/25 03:22:07;;;;;;;22.58;13.70;;;;;;;9.37;51.27;102170.47;4863696;29;20089;-88
2021/01/25 03:24:34;;;;;;;17.15;12.20;;;;;;;10.24;50.77;102287.94;4866747;29;20063;-86
2021/01/25 03:27:01;;;;;;;23.42;15.02;;;;;;;10.17;50.46;102298.97;4889476;29;20547;-87
2021/01/25 03:29:27;;;;;;;22.95;13.55;;;;;;;9.69;50.74;102192.88;4863765;29;20041;-88
2021/01/25 03:31:54;;;;;;;22.92;14.05;;;;;;;9.48;50.57;102160.72;4863290;29;20040;-88
2021/01/25 03:34:21;;;;;;;19.58;11.98;;;;;;;9.47;50.88;102163.69;4879861;29;20024;-86
2021/01/25 03:36:48;;;;;;;17.23;11.70;;;;;;;9.49;50.34;102156.03;4888646;29;20028;-88
2021/01/25 03:39:15;;;;;;;19.70;14.45;;;;;;;10.45;50.09;102288.84;4862555;29;20057;-88
2021/01/25 03:41:42;;;;;;;19.70;12.75;;;;;;;9.23;50.46;102125.34;4862374;29;20041;-87
2021/01/25 03:44:09;;;;;;;22.83;13.80;;;;;;;9.99;50.92;102245.09;4877656;29;20033;-87
2021/01/25 03:46:36;;;;;;;19.13;15.10;;;;;;;10.48;50.23;102239.44;4872983;29;20410;-87
2021/01/25 03:49:03;;;;;;;19.20;13.38;;;;;;;10.63;49.16;102216.22;4896264;29;20048;-87
2021/01/25 03:51:29;;;;;;;18.63;13.90;;;;;;;10.11;48.73;102118.03;4886800;29;20052;-86
2021/01/25 03:53:56;;;;;;;20.45;13.40;;;;;;;10.94;48.39;102251.53;4875315;29;20017;-88
2021/01/25 03:56:23;;;;;;;21.48;13.55;;;;;;;10.74;48.70;102207.25;4877721;29;20538;-87
2021/01/25 03:58:50;;;;;;;18.10;12.88;;;;;;;10.50;48.69;102179.16;4878264;29;20029;-87
2021/01/25 04:01:17;;;;;;;18.75;13.45;;;;;;;10.20;48.73;102126.97;4878322;29;20044;-86
2021/01/25 04:03:43;;;;;;;23.63;12.65;;;;;;;10.36;48.33;102136.75;4871400;29;20033;-87
2021/01/25 04:06:10;;;;;;;17.13;12.73;;;;;;;9.62;48.55;102023.34;4876807;29;20033;-87
2021/01/25 04:08:37;;;;;;;20.73;14.45;;;;;;;9.92;48.78;102081.00;4876453;29;20101;-88
2021/01/25 04:11:04;;;;;;;20.88;13.27;;;;;;;9.47;48.96;101983.97;4883653;29;20025;-87
2021/01/25 04:13:30;;;;;;;23.75;15.45;;;;;;;9.94;48.69;102048.41;4869541;29;20080;-87
2021/01/25 04:15:57;;;;;;;22.77;14.45;;;;;;;10.67;49.53;102173.16;4868055;29;20485;-88
2021/01/25 04:18:24;;;;;;;19.70;13.63;;;;;;;10.52;48.63;102129.94;4881256;29;20021;-87
2021/01/25 04:20:51;;;;;;;18.40;13.15;;;;;;;10.15;49.07;102076.94;4865371;29;20037;-88
2021/01/25 04:23:18;;;;;;;18.38;12.35;;;;;;;9.99;48.66;102007.13;4878481;29;20052;-88
2021/01/25 04:25:45;;;;;;;18.13;14.68;;;;;;;9.97;48.70;101992.69;4881496;29;20040;-87
2021/01/25 04:28:12;;;;;;;19.80;13.80;;;;;;;9.77;47.75;101942.06;4865440;29;20029;-87
2021/01/25 04:30:39;;;;;;;18.17;12.27;;;;;;;10.36;47.30;102062.00;4866079;29;20064;-88
2021/01/25 04:33:06;;;;;;;21.23;13.40;;;;;;;9.94;48.13;101965.44;4877053;29;20103;-88
2021/01/25 04:35:33;;;;;;;16.98;13.70;;;;;;;10.56;46.86;102047.28;4885404;29;20185;-88
2021/01/25 04:38:00;;;;;;;19.98;13.32;;;;;;;10.40;47.13;101990.41;4865430;29;20095;-88
2021/01/25 04:40:27;;;;;;;20.88;13.35;;;;;;;10.34;46.07;102000.47;4896432;29;20045;-87
2021/01/25 04:42:55;;;;;;;16.05;11.68;;;;;;;10.49;45.92;101989.16;4900889;29;20021;-85
2021/01/25 04:45:22;;;;;;;18.70;11.55;;;;;;;11.00;45.24;102066.91;4898928;29;20032;-88
2021/01/25 04:47:53;;;;;;;28.13;13.80;;;;;;;10.48;45.06;101981.94;4884510;29;20497;-86
2021/01/25 04:50:21;;;;;;;19.13;14.30;;;;;;;10.72;43.79;102004.41;4897210;29;20044;-87
2021/01/25 04:52:49;;;;;;;16.92;12.07;;;;;;;10.16;43.76;101915.34;4893828;29;20078;-89
2021/01/25 04:55:16;;;;;;;19.65;13.35;;;;;;;10.65;43.56;102003.59;4881833;29;20025;-87
2021/01/25 04:57:46;;;;;;;19.00;12.30;;;;;;;10.97;42.49;102050.75;4871571;29;20025;-86
2021/01/25 05:00:18;;;;;;;17.90;13.25;;;;;;;11.14;42.19;102077.94;4885634;29;20061;-87
2021/01/25 05:02:45;;;;;;;24.23;13.57;;;;;;;11.16;42.25;102086.88;4878436;29;20043;-89
2021/01/25 05:05:12;;;;;;;18.52;12.65;;;;;;;10.67;42.24;101987.59;4863386;29;20028;-87
2021/01/25 05:07:39;;;;;;;14.98;10.25;;;;;;;11.31;41.28;102068.03;4865886;29;20022;-88
2021/01/25 05:10:08;;;;;;;16.10;10.48;;;;;;;11.25;41.18;102055.06;4878507;29;20084;-87
2021/01/25 05:12:46;;;;;;;16.70;11.07;;;;;;;11.15;41.09;102036.16;4900382;29;20021;-88
2021/01/25 05:15:31;;;;;;;14.18;10.25;;;;;;;10.74;40.80;101952.41;4900809;29;20501;-87
2021/01/25 05:18:02;;;;;;;22.17;10.75;;;;;;;11.19;40.65;102004.13;4877079;29;20029;-85
2021/01/25 05:20:31;;;;;;;16.70;9.85;;;;;;;11.28;40.98;102035.19;4887340;29;20494;-87
2021/01/25 05:23:00;;;;;;;16.35;9.73;;;;;;;11.42;40.50;102018.47;4877584;29;20495;-88
2021/01/25 05:25:35;;;;;;;16.35;11.38;;;;;;;11.00;42.93;101944.16;4877474;29;20040;-87
2021/01/25 05:28:02;;;;;;;31.90;19.63;;;;;;;11.13;48.93;101993.09;4893091;29;20044;-88
2021/01/25 05:30:30;;;;;;;26.00;16.65;;;;;;;10.34;46.89;101873.13;4865477;29;20097;-88
2021/01/25 05:32:58;;;;;;;30.05;21.00;;;;;;;10.50;49.06;101924.41;4863755;29;20188;-87
2021/01/25 05:35:30;;;;;;;28.65;18.77;;;;;;;9.86;50.23;101929.69;4877048;29;20727;-88
2021/01/25 05:38:03;;;;;;;35.75;22.40;;;;;;;10.68;49.96;102036.38;4864045;29;20052;-88
2021/01/25 05:40:33;;;;;;;31.95;23.65;;;;;;;9.69;51.01;101946.75;4877172;29;20033;-88
2021/01/25 05:43:00;;;;;;;33.95;23.83;;;;;;;10.13;51.43;101996.06;4870342;29;20067;-88
2021/01/25 05:45:30;;;;;;;46.95;26.05;;;;;;;9.74;51.18;101942.50;4898353;29;20060;-87
2021/01/25 05:47:59;;;;;;;37.30;24.52;;;;;;;9.91;50.82;101974.16;4877224;29;20076;-86
2021/01/25 05:50:35;;;;;;;37.15;23.63;;;;;;;10.46;49.84;102019.22;4879907;29;20050;-87
2021/01/25 05:53:07;;;;;;;37.10;23.35;;;;;;;10.59;50.23;102007.22;4880917;29;20371;-87
2021/01/25 05:55:35;;;;;;;37.40;24.52;;;;;;;10.38;50.20;101965.75;4864329;29;20132;-88
2021/01/25 05:58:03;;;;;;;32.17;20.55;;;;;;;10.50;49.89;102010.25;4864165;29;20049;-86
2021/01/25 06:00:31;;;;;;;35.55;23.95;;;;;;;10.56;49.63;102005.75;4884908;29;20033;-86
2021/01/25 06:02:58;;;;;;;35.42;23.90;;;;;;;10.13;50.06;101926.88;4887739;29;20041;-86
2021/01/25 06:05:35;;;;;;;34.25;23.10;;;;;;;10.90;49.42;102000.91;4889665;29;20033;-87
2021/01/25 06:08:14;;;;;;;34.97;24.75;;;;;;;11.00;48.86;102003.16;4883022;29;20040;-87
2021/01/25 06:11:16;;;;;;;30.45;23.00;;;;;;;10.34;48.84;101897.19;4897621;29;20039;-88
2021/01/25 06:13:48;;;;;;;33.45;23.83;;;;;;;11.17;48.25;102010.97;4898037;29;20127;-88
2021/01/25 06:16:18;;;;;;;37.45;23.33;;;;;;;10.22;47.81;101828.69;4897957;29;20029;-87
2021/01/25 06:18:47;;;;;;;30.67;20.63;;;;;;;10.66;46.56;101888.94;4898365;29;20040;-88
2021/01/25 06:21:25;;;;;;;31.35;20.17;;;;;;;11.39;46.25;101993.97;4898530;29;20136;-87
2021/01/25 06:23:56;;;;;;;28.38;22.00;;;;;;;11.46;46.57;101975.34;4881826;29;20025;-86
2021/01/25 06:26:26;;;;;;;28.67;20.30;;;;;;;11.14;45.19;101929.13;4876011;29;20044;-88
2021/01/25 06:28:53;;;;;;;36.72;21.92;;;;;;;10.79;45.53;101855.63;4879919;29;20041;-87
2021/01/25 06:31:21;;;;;;;29.23;20.33;;;;;;;10.37;45.76;101781.34;4866153;29;20101;-88
2021/01/25 06:33:49;;;;;;;35.50;22.50;;;;;;;11.17;45.97;101906.47;4882908;29;20104;-86
2021/01/25 06:36:20;;;;;;;34.00;24.23;;;;;;;11.67;46.68;101973.25;4869993;29;20036;-87
2021/01/25 06:38:50;;;;;;;36.00;24.90;;;;;;;10.11;49.84;101870.91;4879121;29;20098;-86
2021/01/25 06:41:18;;;;;;;39.90;29.20;;;;;;;10.67;51.44;101995.91;4872082;29;20036;-87
2021/01/25 06:43:49;;;;;;;36.97;27.58;;;;;;;9.89;51.08;101878.63;4884875;29;20467;-87
2021/01/25 06:46:21;;;;;;;50.45;31.02;;;;;;;10.11;52.17;101960.28;4887011;29;20021;-87
2021/01/25 06:48:50;;;;;;;53.78;31.25;;;;;;;10.04;53.37;101984.34;4888541;29;20039;-87
2021/01/25 06:51:19;;;;;;;36.00;22.52;;;;;;;9.60;54.02;101959.09;4884212;29;20060;-88
2021/01/25 06:53:50;;;;;;;48.97;30.20;;;;;;;8.92;54.52;101863.44;4871455;29;20029;-86
2021/01/25 06:56:17;;;;;;;40.47;29.95;;;;;;;9.25;54.13;101913.19;4866270;29;20511;-86
2021/01/25 06:58:49;;;;;;;41.60;28.33;;;;;;;9.20;53.77;101867.94;4873069;29;20159;-88
2021/01/25 07:01:21;;;;;;;41.53;27.65;;;;;;;8.29;54.29;101777.13;4871223;29;20044;-87
2021/01/25 07:03:53;;;;;;;37.47;27.95;;;;;;;8.98;54.56;101887.47;4879223;29;20033;-86
2021/01/25 07:06:20;;;;;;;45.38;27.67;;;;;;;8.76;54.18;101837.94;4869017;29;20025;-88
2021/01/25 07:08:56;;;;;;;48.90;32.55;;;;;;;9.20;54.17;101920.44;4863144;29;20037;-87
2021/01/25 07:11:26;;;;;;;46.25;29.52;;;;;;;9.39;54.36;101983.13;4887055;29;20065;-89
2021/01/25 07:13:54;;;;;;;51.50;32.25;;;;;;;8.16;54.05;101784.34;4885638;29;20505;-85
2021/01/25 07:16:23;;;;;;;42.72;31.30;;;;;;;9.61;53.73;102004.22;4871258;29;20127;-87
2021/01/25 07:18:52;;;;;;;54.80;33.78;;;;;;;9.54;53.59;101960.81;4878771;29;20029;-86
2021/01/25 07:21:20;;;;;;;48.55;33.50;;;;;;;9.96;53.03;101990.97;4884899;29;20053;-86
2021/01/25 07:23:49;;;;;;;47.13;30.70;;;;;;;8.99;53.45;101890.00;4873019;29;20048;-87
2021/01/25 07:26:18;;;;;;;46.75;31.85;;;;;;;9.81;54.04;101995.91;4864750;29;20037;-88
2021/01/25 07:28:46;;;;;;;46.25;34.03;;;;;;;9.21;53.87;101878.75;4871928;29;20057;-87
2021/01/25 07:31:14;;;;;;;40.67;31.20;;;;;;;9.81;53.46;101980.13;4896798;29;20103;-86
2021/01/25 07:33:41;;;;;;;49.58;32.80;;;;;;;9.84;53.36;101981.63;4902244;29;20020;-87
2021/01/25 07:36:08;;;;;;;53.58;35.67;;;;;;;9.85;53.62;102003.53;4876641;29;20052;-88
2021/01/25 07:38:36;;;;;;;48.60;31.13;;;;;;;9.24;53.24;101874.72;4866747;29;20045;-87
2021/01/25 07:41:03;;;;;;;44.92;29.48;;;;;;;10.24;52.93;102011.97;4878294;29;20044;-86
2021/01/25 07:43:31;;;;;;;49.30;30.48;;;;;;;10.18;52.18;101976.88;4889030;29;20104;-87
2021/01/25 07:46:10;;;;;;;47.03;28.88;;;;;;;9.68;51.31;101927.59;4869353;29;20104;-87
2021/01/25 07:48:56;;;;;;;42.25;28.42;;;;;;;10.10;51.75;102007.56;4878202;29;20053;-87
2021/01/25 07:51:25;;;;;;;40.28;28.50;;;;;;;9.45;52.13;101910.41;4878930;29;20040;-88
2021/01/25 07:53:54;;;;;;;44.90;28.75;;;;;;;9.61;51.51;101951.69;4896390;29;20037;-89
2021/01/25 07:56:24;;;;;;;40.97;27.85;;;;;;;9.25;51.55;101884.69;4875837;29;20029;-88
2021/01/25 07:58:50;;;;;;;;;;;;;;;9.99;51.39;102009.91;4884077;29;20036;-88
2021/01/25 08:01:25;;;;;;;42.40;26.65;;;;;;;9.62;51.22;101934.84;4873001;29;19923;-84
2021/01/25 08:04:01;;;;;;;48.72;27.35;;;;;;;9.42;51.28;101923.81;4877207;29;20045;-85
2021/01/25 08:06:36;;;;;;;49.55;28.52;;;;;;;9.07;51.31;101860.47;4891028;29;20502;-88
2021/01/25 08:09:05;;;;;;;38.88;24.83;;;;;;;9.78;51.01;101983.34;4895646;29;20097;-84
2021/01/25 08:11:34;;;;;;;42.55;27.98;;;;;;;9.43;50.92;101942.09;4870572;29;20025;-85
2021/01/25 08:14:09;;;;;;;37.53;26.08;;;;;;;9.93;51.16;102008.00;4862800;29;20399;-85
2021/01/25 08:16:44;;;;;;;36.88;26.52;;;;;;;9.31;50.46;101894.91;4862146;29;20043;-83
2021/01/25 08:19:27;;;;;;;41.33;27.08;;;;;;;9.64;51.33;102004.63;4857281;29;20132;-83
2021/01/25 08:22:05;;;;;;;40.15;25.90;;;;;;;8.99;51.31;101925.91;4865634;29;20120;-85
2021/01/25 08:24:35;;;;;;;39.53;28.35;;;;;;;8.78;52.10;101898.50;4874969;29;20398;-84
2021/01/25 08:27:14;;;;;;;38.60;27.10;;;;;;;8.40;53.03;101861.19;4873366;29;20035;-84
2021/01/25 08:29:44;;;;;;;43.22;29.20;;;;;;;8.33;53.31;101872.22;4886838;29;20028;-85
2021/01/25 08:32:13;;;;;;;41.10;27.23;;;;;;;7.74;52.90;101756.81;4881742;29;20258;-84
2021/01/25 08:34:41;;;;;;;50.40;31.05;;;;;;;8.92;53.07;101924.22;4876000;29;20029;-85
2021/01/25 08:37:12;;;;;;;46.35;30.52;;;;;;;9.29;53.57;102011.19;4872697;29;20033;-84
2021/01/25 08:39:47;;;;;;;46.40;31.10;;;;;;;8.80;54.25;101930.34;4874837;29;20052;-85
2021/01/25 08:42:21;;;;;;;42.10;30.65;;;;;;;8.83;54.72;101952.03;4872287;29;20028;-84
2021/01/25 08:44:56;;;;;;;45.70;31.05;;;;;;;8.76;56.22;101968.56;4876232;29;20215;-84
2021/01/25 08:47:29;;;;;;;47.25;31.23;;;;;;;8.31;56.72;101941.41;4889465;29;20120;-85
2021/01/25 08:49:57;;;;;;;54.55;34.25;;;;;;;8.58;57.19;101985.72;4891257;29;20033;-85
2021/01/25 08:52:42;;;;;;;42.80;30.88;;;;;;;8.84;56.71;102000.69;4862919;29;20036;-83
2021/01/25 08:55:26;;;;;;;47.88;31.15;;;;;;;8.66;57.17;101972.81;4853533;29;20065;-84
2021/01/25 08:57:55;;;;;;;40.78;28.25;;;;;;;8.51;55.59;101940.69;4885425;29;20061;-83
2021/01/25 09:00:25;;;;;;;46.53;32.92;;;;;;;8.76;57.10;102009.16;4890216;29;20040;-86
2021/01/25 09:02:59;;;;;;;57.35;34.67;;;;;;;8.69;57.10;101986.19;4863555;29;20033;-87
2021/01/25 09:05:26;;;;;;;47.90;30.90;;;;;;;8.78;57.72;102012.53;4865237;29;20037;-83
2021/01/25 09:07:54;;;;;;;52.22;36.10;;;;;;;8.32;57.41;101921.03;4874251;29;20080;-86
2021/01/25 09:10:21;;;;;;;46.70;33.45;;;;;;;8.71;57.01;101975.78;4862612;29;20040;-85
2021/01/25 09:12:48;;;;;;;42.88;30.48;;;;;;;7.93;57.18;101872.91;4834985;29;20052;-84
2021/01/25 09:15:16;;;;;;;45.67;32.90;;;;;;;8.78;57.94;101995.97;4869905;29;20039;-83
2021/01/25 09:17:43;;;;;;;46.50;33.50;;;;;;;7.87;57.61;101858.06;4882180;29;20499;-83
2021/01/25 09:20:11;;;;;;;45.03;32.47;;;;;;;8.57;57.85;101978.47;4866042;29;20116;-83
2021/01/25 09:22:38;;;;;;;45.50;32.92;;;;;;;8.76;57.18;102015.50;4880287;29;20085;-82
2021/01/25 09:25:08;;;;;;;45.90;31.83;;;;;;;8.61;57.62;102007.41;4860722;29;20043;-83
2021/01/25 09:27:35;;;;;;;46.28;33.08;;;;;;;7.62;57.78;101869.56;4877457;29;20037;-85
2021/01/25 09:30:03;;;;;;;53.88;34.88;;;;;;;7.73;57.74;101883.84;4861025;29;20464;-90
2021/01/25 09:32:30;;;;;;;41.10;31.70;;;;;;;7.61;58.46;101856.00;4865517;29;20053;-84
2021/01/25 09:34:56;;;;;;;45.70;33.08;;;;;;;8.45;57.77;101972.66;4886119;29;20427;-88
2021/01/25 09:37:23;;;;;;;46.67;32.45;;;;;;;8.04;57.94;101929.41;4866276;29;20292;-84
2021/01/25 09:39:50;;;;;;;46.47;31.80;;;;;;;7.61;58.30;101847.72;4890866;29;20049;-85
2021/01/25 09:42:18;;;;;;;47.10;33.03;;;;;;;8.15;58.45;101941.78;4857350;29;20567;-85
2021/01/25 09:44:45;;;;;;;45.17;32.97;;;;;;;8.50;58.84;102010.69;4880019;29;20033;-85
2021/01/25 09:47:11;;;;;;;48.28;32.97;;;;;;;7.14;58.10;101787.69;4866302;29;20041;-83
2021/01/25 09:49:38;;;;;;;49.25;31.50;;;;;;;7.62;58.11;101871.47;4858935;29;20041;-85
2021/01/25 09:52:05;;;;;;;48.17;31.88;;;;;;;8.23;58.16;102007.81;4860121;29;20458;-85
2021/01/25 09:54:32;;;;;;;44.70;31.50;;;;;;;7.32;58.88;101894.56;4878372;29;20041;-84
2021/01/25 09:56:59;;;;;;;52.75;30.67;;;;;;;6.69;58.71;101812.72;4872936;29;20462;-82
2021/01/25 09:59:26;;;;;;;50.67;32.00;;;;;;;7.74;58.74;101960.81;4865450;29;20043;-82
2021/01/25 10:01:53;;;;;;;46.88;31.00;;;;;;;8.15;59.28;102008.81;4854706;29;20036;-81
2021/01/25 10:04:20;;;;;;;45.03;31.48;;;;;;;7.79;59.34;101976.78;4865705;29;20578;-82
2021/01/25 10:06:46;;;;;;;41.25;29.55;;;;;;;8.00;58.73;101973.09;4864489;29;20041;-87
2021/01/25 10:09:13;;;;;;;45.05;29.00;;;;;;;7.43;58.96;101884.91;4867472;29;20117;-87
2021/01/25 10:11:40;;;;;;;44.08;30.00;;;;;;;7.32;59.66;101904.75;4863580;29;20032;-83
2021/01/25 10:14:07;;;;;;;49.22;31.80;;;;;;;7.49;58.78;101899.81;4859599;29;20029;-85
2021/01/25 10:16:34;;;;;;;45.22;30.50;;;;;;;6.69;59.17;101772.31;4879900;29;20036;-87
2021/01/25 10:19:01;;;;;;;49.28;31.58;;;;;;;7.97;59.55;101979.03;4872009;29;20033;-86
2021/01/25 10:21:28;;;;;;;48.63;32.03;;;;;;;7.54;59.97;101908.31;4882650;29;20037;-84
2021/01/25 10:23:55;;;;;;;46.72;30.08;;;;;;;7.41;60.12;101920.09;4866354;29;20036;-81
2021/01/25 10:26:22;;;;;;;48.55;31.42;;;;;;;7.40;60.11;101901.84;4875030;29;20044;-81
2021/01/25 10:28:50;;;;;;;44.97;30.08;;;;;;;7.37;59.82;101903.09;4872017;29;20040;-81
2021/01/25 10:31:17;;;;;;;49.42;29.38;;;;;;;7.30;59.43;101876.56;4878725;29;20044;-84
2021/01/25 10:33:44;;;;;;;43.60;28.70;;;;;;;6.57;59.73;101776.63;4866122;29;20017;-86
2021/01/25 10:36:11;;;;;;;49.60;31.40;;;;;;;7.59;60.03;101949.91;4885244;29;20479;-84
2021/01/25 10:38:38;;;;;;;46.78;33.45;;;;;;;7.17;60.52;101896.56;4891343;29;20062;-83
2021/01/25 10:41:05;;;;;;;51.40;31.85;;;;;;;6.77;60.68;101798.81;4876005;29;20094;-84
2021/01/25 10:43:32;;;;;;;45.05;31.58;;;;;;;7.53;61.73;101961.72;4868485;29;20089;-82
2021/01/25 10:45:59;;;;;;;45.20;28.83;;;;;;;6.22;61.64;101721.50;4870264;29;20049;-82
2021/01/25 10:48:26;;;;;;;42.47;29.75;;;;;;;5.65;61.41;101644.38;4885392;29;20045;-83
2021/01/25 10:50:53;;;;;;;47.95;31.65;;;;;;;7.10;61.67;101880.88;4867055;29;20048;-83
2021/01/25 10:53:20;;;;;;;41.70;29.08;;;;;;;7.67;61.20;101970.97;4890380;29;20053;-90
2021/01/25 10:55:47;;;;;;;50.25;31.90;;;;;;;6.29;60.58;101741.66;4889457;29;20041;-88
2021/01/25 10:58:14;;;;;;;49.55;31.85;;;;;;;7.09;60.58;101890.16;4872566;29;20447;-92
2021/01/25 11:00:41;;;;;;;41.28;29.60;;;;;;;7.83;60.65;101955.16;4873056;29;20043;-94
2021/01/25 11:03:08;;;;;;;47.65;30.00;;;;;;;7.45;60.42;101902.13;4870315;29;20119;-90
2021/01/25 11:05:35;;;;;;;49.92;32.45;;;;;;;7.79;61.11;101972.09;4869133;29;20070;-84
2021/01/25 11:08:03;;;;;;;44.70;31.15;;;;;;;7.77;61.09;101957.66;4873688;29;20100;-87
2021/01/25 11:10:30;;;;;;;48.40;32.25;;;;;;;7.89;60.83;101968.13;4867807;29;20037;-85
2021/01/25 11:12:57;;;;;;;48.80;30.58;;;;;;;7.38;61.40;101915.00;4884606;29;20510;-86
2021/01/25 11:15:24;;;;;;;51.97;30.33;;;;;;;7.60;61.73;101961.78;4872988;29;20037;-83
2021/01/25 11:17:51;;;;;;;44.90;30.40;;;;;;;7.07;61.60;101866.66;4871676;29;20861;-86
2021/01/25 11:20:19;;;;;;;48.65;33.03;;;;;;;7.61;61.81;101969.00;4876364;29;20028;-85
2021/01/25 11:22:52;;;;;;;47.38;29.88;;;;;;;6.20;61.89;101770.34;4877056;29;20089;-87
2021/01/25 11:25:19;;;;;;;53.28;33.58;;;;;;;5.46;62.72;101674.16;4869148;29;20041;-86